Flight Track Log - Related Links

Times and Time Zones

All times are in EDT time to prevent confusion due to time zone crossing. See the UCA4838 flight status page for this flight to view local times or setup timezone preferences in your user account.


Time Position Orientation Groundspeed Altitude Reporting Facility
EDT Latitude Longitude Course Direction KTS MPH feet Rate Location/Type
Sat 08:00:00 AM 41.2822 -74.0659 North  Level Estimated
Sat 08:01:00 AM 41.3412 -74.0555 North  Level Estimated
Sat 08:02:00 AM 41.4002 -74.0451 North  Level Estimated
Sat 08:03:00 AM 41.4592 -74.0347 North  Level Estimated
Sat 08:04:00 AM 41.5181 -74.0243 North  Level Estimated
Sat 08:05:00 AM 41.5771 -74.0138 North  Level Estimated
Sat 08:06:00 AM 41.6361 -74.0034 North  Level Estimated
Sat 08:07:00 AM 41.6950 -73.9929 North  Level Estimated
Sat 08:08:00 AM 41.7540 -73.9824 North  Level Estimated
Sat 08:09:00 AM 41.8130 -73.9718 North  Level Estimated
Sat 08:10:00 AM 41.8719 -73.9613 North  Level Estimated
Sat 08:11:00 AM 41.9309 -73.9507 North  Level Estimated
Sat 08:12:00 AM 41.9898 -73.9401 North  Level Estimated
Sat 08:13:00 AM 42.0488 -73.9295 North  Level Estimated
Sat 08:14:00 AM 42.1077 -73.9189 North  Level Estimated
Sat 08:15:00 AM 42.1667 -73.9082 North  Level Estimated
Sat 08:16:00 AM 42.2257 -73.8976 North  Level Estimated
Sat 08:17:00 AM 42.2846 -73.8869 North  Level Estimated
Sat 08:18:00 AM 42.3436 -73.8762 North  Level Estimated
Sat 08:19:00 AM 42.4025 -73.8654 North  Level Estimated
Sat 08:20:00 AM 42.4615 -73.8547 North  Level Estimated
Sat 08:21:00 AM 42.5204 -73.8439 North  Level Estimated
Sat 08:22:00 AM 42.5794 -73.8331 North  Level Estimated
Sat 08:23:00 AM 42.6383 -73.8223 North  Level Estimated
Sat 08:24:00 AM 42.6973 -73.8115 North  Level Estimated
Sat 08:25:00 AM 42.7491 -73.8020 North  Level Estimated
Sat 08:26:00 AM 42.7491 -73.8020 304° West  Level Estimated
Sat 08:27:00 AM 42.7491 -73.8020 304° West  Level Estimated
Sat 08:28:00 AM 42.7491 -73.8020 304° West  Level Estimated
Sat 08:29:00 AM 42.7491 -73.8020 304° West  Level Estimated
Sat 08:30:00 AM 42.7491 -73.8020 304° West  Level Estimated
Sat 08:31:00 AM 42.7491 -73.8020 304° West  Level Estimated
Sat 08:32:00 AM 42.7491 -73.8020 304° West  Level Estimated
Sat 08:33:00 AM 42.7491 -73.8020 304° West  Level Estimated
Sat 08:34:00 AM 42.7491 -73.8020 304° West  Level Estimated
Sat 08:35:00 AM 42.7491 -73.8020 304° West  Level Estimated
Sat 08:36:00 AM 42.7491 -73.8020 304° West  Level Estimated
Sat 08:37:00 AM 42.7491 -73.8020 304° West  Level Estimated
Sat 08:38:00 AM 42.7491 -73.8020 304° West  Level Estimated
Sat 08:39:00 AM 42.7491 -73.8020 304° West  Level Estimated
Sat 08:40:00 AM 42.7491 -73.8020 304° West  Level Estimated
Sat 08:41:00 AM 42.7491 -73.8020 304° West  Level Estimated

Login

Don't have an account? Register now (free) for customized features, flight alerts, and more!